Rapa, French Polynesia
Current Conditions -  °F | °C
As of 8:00 PM on Wednesday 22 Oct 2014 (Local Time) from NTAA Reporting Station
Rain Showers Rain Showers  
Wind Chill: 77°   Ceiling: Unl
Heat Index: 78°   Visibility: 6mi
Dew Point: 73°   Wind: 20mph
Humidity: 89%   Direction: 200°SSW
Pressure: 29.85"   Gusts: NA
Location:  27.6°S, 144.33°W
Report Text: NTAA 230500Z 20017KT 9999 VCSH FEW006 25/23 Q1011 NOSIG
Loading
Personal Weather Stations






























Interactive Weather Map
Tropical Storm Tracking
New forecast layout! Learn more

10-Day Weather Forecast

Advertisements
Track Severe Weather on mobile